sensor_id;sensor_type;location;lat;lon;timestamp;P1;durP1;ratioP1;P2;durP2;ratioP2
13185;SDS011;6658;53.080;7.428;2023-07-13T00:05:06;2.67;;;1.63;;
13185;SDS011;6658;53.080;7.428;2023-07-13T00:14:52;1.90;;;1.50;;
13185;SDS011;6658;53.080;7.428;2023-07-13T01:43:01;4.20;;;1.70;;
13185;SDS011;6658;53.080;7.428;2023-07-13T01:46:27;5.00;;;1.43;;
13185;SDS011;6658;53.080;7.428;2023-07-13T01:56:16;3.97;;;1.77;;
13185;SDS011;6658;53.080;7.428;2023-07-13T01:59:00;3.87;;;1.60;;
13185;SDS011;6658;53.080;7.428;2023-07-13T02:09:21;4.83;;;1.80;;
13185;SDS011;6658;53.080;7.428;2023-07-13T02:12:10;4.43;;;1.90;;
13185;SDS011;6658;53.080;7.428;2023-07-13T02:18:23;4.93;;;2.00;;
13185;SDS011;6658;53.080;7.428;2023-07-13T02:20:52;4.37;;;1.60;;
13185;SDS011;6658;53.080;7.428;2023-07-13T02:24:02;3.43;;;1.50;;
13185;SDS011;6658;53.080;7.428;2023-07-13T02:29:39;4.50;;;1.90;;
13185;SDS011;6658;53.080;7.428;2023-07-13T02:32:19;5.60;;;2.00;;
13185;SDS011;6658;53.080;7.428;2023-07-13T02:35:04;3.37;;;1.83;;
13185;SDS011;6658;53.080;7.428;2023-07-13T02:37:32;5.93;;;2.03;;
13185;SDS011;6658;53.080;7.428;2023-07-13T02:40:03;3.80;;;1.60;;
13185;SDS011;6658;53.080;7.428;2023-07-13T02:52:49;4.73;;;2.13;;
13185;SDS011;6658;53.080;7.428;2023-07-13T03:13:19;4.43;;;1.97;;
13185;SDS011;6658;53.080;7.428;2023-07-13T03:16:25;5.97;;;1.80;;
13185;SDS011;6658;53.080;7.428;2023-07-13T03:25:43;3.90;;;2.00;;
13185;SDS011;6658;53.080;7.428;2023-07-13T04:05:42;4.43;;;1.83;;
13185;SDS011;6658;53.080;7.428;2023-07-13T04:08:08;4.50;;;2.10;;
13185;SDS011;6658;53.080;7.428;2023-07-13T04:14:08;6.93;;;2.47;;
13185;SDS011;6658;53.080;7.428;2023-07-13T04:16:48;5.83;;;2.40;;
13185;SDS011;6658;53.080;7.428;2023-07-13T04:28:16;5.13;;;2.00;;
13185;SDS011;6658;53.080;7.428;2023-07-13T04:38:10;7.00;;;2.97;;
13185;SDS011;6658;53.080;7.428;2023-07-13T04:40:36;4.73;;;1.77;;
13185;SDS011;6658;53.080;7.428;2023-07-13T04:50:42;4.10;;;1.63;;
13185;SDS011;6658;53.080;7.428;2023-07-13T04:53:08;4.10;;;1.50;;
13185;SDS011;6658;53.080;7.428;2023-07-13T04:58:53;4.70;;;1.57;;
13185;SDS011;6658;53.080;7.428;2023-07-13T05:01:25;4.00;;;2.00;;
13185;SDS011;6658;53.080;7.428;2023-07-13T05:07:26;3.80;;;2.00;;
13185;SDS011;6658;53.080;7.428;2023-07-13T05:17:12;4.93;;;1.97;;
13185;SDS011;6658;53.080;7.428;2023-07-13T05:19:38;4.13;;;1.80;;
13185;SDS011;6658;53.080;7.428;2023-07-13T05:25:12;7.43;;;2.30;;
13185;SDS011;6658;53.080;7.428;2023-07-13T05:31:18;5.00;;;2.20;;
13185;SDS011;6658;53.080;7.428;2023-07-13T05:33:46;4.03;;;1.90;;
13185;SDS011;6658;53.080;7.428;2023-07-13T05:36:17;5.27;;;2.17;;
13185;SDS011;6658;53.080;7.428;2023-07-13T05:39:09;5.67;;;2.20;;
13185;SDS011;6658;53.080;7.428;2023-07-13T05:42:06;4.53;;;1.77;;
13185;SDS011;6658;53.080;7.428;2023-07-13T05:44:32;5.67;;;2.23;;
13185;SDS011;6658;53.080;7.428;2023-07-13T05:47:05;3.70;;;2.17;;
13185;SDS011;6658;53.080;7.428;2023-07-13T05:49:44;3.67;;;1.80;;
13185;SDS011;6658;53.080;7.428;2023-07-13T05:52:19;5.37;;;2.20;;
13185;SDS011;6658;53.080;7.428;2023-07-13T05:54:47;3.90;;;1.73;;
13185;SDS011;6658;53.080;7.428;2023-07-13T05:57:13;5.83;;;1.90;;
13185;SDS011;6658;53.080;7.428;2023-07-13T05:59:39;4.60;;;1.73;;
13185;SDS011;6658;53.080;7.428;2023-07-13T06:02:10;3.53;;;1.70;;
13185;SDS011;6658;53.080;7.428;2023-07-13T06:04:36;5.33;;;1.80;;
13185;SDS011;6658;53.080;7.428;2023-07-13T06:07:45;2.90;;;1.77;;
13185;SDS011;6658;53.080;7.428;2023-07-13T06:09:57;5.13;;;1.83;;
13185;SDS011;6658;53.080;7.428;2023-07-13T06:12:24;4.97;;;2.00;;
13185;SDS011;6658;53.080;7.428;2023-07-13T06:14:53;4.63;;;2.10;;
13185;SDS011;6658;53.080;7.428;2023-07-13T06:17:21;5.00;;;1.87;;
13185;SDS011;6658;53.080;7.428;2023-07-13T06:19:47;4.97;;;1.73;;
13185;SDS011;6658;53.080;7.428;2023-07-13T06:22:38;5.33;;;2.17;;
13185;SDS011;6658;53.080;7.428;2023-07-13T06:25:04;3.87;;;2.00;;
13185;SDS011;6658;53.080;7.428;2023-07-13T06:27:33;3.83;;;1.70;;
13185;SDS011;6658;53.080;7.428;2023-07-13T06:30:05;4.63;;;1.90;;
13185;SDS011;6658;53.080;7.428;2023-07-13T06:32:31;4.83;;;2.07;;
13185;SDS011;6658;53.080;7.428;2023-07-13T06:34:57;4.70;;;2.37;;
13185;SDS011;6658;53.080;7.428;2023-07-13T06:37:23;4.10;;;1.90;;
13185;SDS011;6658;53.080;7.428;2023-07-13T06:39:48;4.20;;;1.80;;
13185;SDS011;6658;53.080;7.428;2023-07-13T06:42:15;5.00;;;1.93;;
13185;SDS011;6658;53.080;7.428;2023-07-13T06:44:41;4.20;;;1.87;;
13185;SDS011;6658;53.080;7.428;2023-07-13T06:47:07;4.23;;;1.73;;
13185;SDS011;6658;53.080;7.428;2023-07-13T06:49:33;3.50;;;1.93;;
13185;SDS011;6658;53.080;7.428;2023-07-13T06:51:59;3.77;;;2.03;;
13185;SDS011;6658;53.080;7.428;2023-07-13T06:54:24;5.23;;;2.20;;
13185;SDS011;6658;53.080;7.428;2023-07-13T06:56:50;4.60;;;2.00;;
13185;SDS011;6658;53.080;7.428;2023-07-13T06:59:16;3.13;;;1.53;;
13185;SDS011;6658;53.080;7.428;2023-07-13T07:01:42;4.50;;;2.13;;
13185;SDS011;6658;53.080;7.428;2023-07-13T07:04:08;4.53;;;2.20;;
13185;SDS011;6658;53.080;7.428;2023-07-13T07:06:33;4.67;;;2.00;;
13185;SDS011;6658;53.080;7.428;2023-07-13T07:08:59;4.33;;;2.17;;
13185;SDS011;6658;53.080;7.428;2023-07-13T07:11:25;4.80;;;1.90;;
13185;SDS011;6658;53.080;7.428;2023-07-13T07:13:51;4.23;;;1.80;;
13185;SDS011;6658;53.080;7.428;2023-07-13T07:16:18;3.47;;;1.80;;
13185;SDS011;6658;53.080;7.428;2023-07-13T07:18:45;4.67;;;2.10;;
13185;SDS011;6658;53.080;7.428;2023-07-13T07:21:14;3.20;;;1.50;;
13185;SDS011;6658;53.080;7.428;2023-07-13T07:23:40;4.00;;;1.80;;
13185;SDS011;6658;53.080;7.428;2023-07-13T07:26:27;5.23;;;1.97;;
13185;SDS011;6658;53.080;7.428;2023-07-13T07:28:58;5.20;;;1.90;;
13185;SDS011;6658;53.080;7.428;2023-07-13T07:31:24;2.97;;;1.50;;
13185;SDS011;6658;53.080;7.428;2023-07-13T07:33:50;4.57;;;2.03;;
13185;SDS011;6658;53.080;7.428;2023-07-13T07:36:16;4.23;;;1.53;;
13185;SDS011;6658;53.080;7.428;2023-07-13T07:38:43;3.43;;;1.70;;
13185;SDS011;6658;53.080;7.428;2023-07-13T07:41:08;3.80;;;1.60;;
13185;SDS011;6658;53.080;7.428;2023-07-13T07:44:08;3.77;;;1.60;;
13185;SDS011;6658;53.080;7.428;2023-07-13T07:47:07;3.93;;;1.60;;
13185;SDS011;6658;53.080;7.428;2023-07-13T07:49:36;2.77;;;1.50;;
13185;SDS011;6658;53.080;7.428;2023-07-13T07:52:03;2.88;;;1.40;;
13185;SDS011;6658;53.080;7.428;2023-07-13T07:54:41;4.03;;;1.50;;
13185;SDS011;6658;53.080;7.428;2023-07-13T07:57:07;3.47;;;1.50;;
13185;SDS011;6658;53.080;7.428;2023-07-13T07:59:33;3.43;;;1.70;;
13185;SDS011;6658;53.080;7.428;2023-07-13T08:02:01;3.70;;;1.50;;
13185;SDS011;6658;53.080;7.428;2023-07-13T08:04:30;2.67;;;1.53;;
13185;SDS011;6658;53.080;7.428;2023-07-13T08:06:56;2.67;;;1.30;;
13185;SDS011;6658;53.080;7.428;2023-07-13T08:09:22;3.90;;;1.57;;
13185;SDS011;6658;53.080;7.428;2023-07-13T08:11:48;3.83;;;1.40;;
13185;SDS011;6658;53.080;7.428;2023-07-13T08:14:16;4.60;;;1.53;;
13185;SDS011;6658;53.080;7.428;2023-07-13T08:16:45;5.47;;;1.93;;
13185;SDS011;6658;53.080;7.428;2023-07-13T08:19:11;3.80;;;1.47;;
13185;SDS011;6658;53.080;7.428;2023-07-13T08:21:36;1.80;;;1.13;;
13185;SDS011;6658;53.080;7.428;2023-07-13T08:27:01;3.17;;;1.50;;
13185;SDS011;6658;53.080;7.428;2023-07-13T08:29:29;2.27;;;1.33;;
13185;SDS011;6658;53.080;7.428;2023-07-13T08:31:58;3.97;;;1.57;;
13185;SDS011;6658;53.080;7.428;2023-07-13T08:34:24;1.83;;;1.10;;
13185;SDS011;6658;53.080;7.428;2023-07-13T08:36:50;1.90;;;1.33;;
13185;SDS011;6658;53.080;7.428;2023-07-13T08:41:53;5.40;;;1.40;;
13185;SDS011;6658;53.080;7.428;2023-07-13T08:44:46;3.83;;;1.60;;
13185;SDS011;6658;53.080;7.428;2023-07-13T08:47:37;4.53;;;1.60;;
13185;SDS011;6658;53.080;7.428;2023-07-13T08:50:15;2.87;;;1.50;;
13185;SDS011;6658;53.080;7.428;2023-07-13T08:52:44;5.77;;;1.63;;
13185;SDS011;6658;53.080;7.428;2023-07-13T08:57:42;4.97;;;1.57;;
13185;SDS011;6658;53.080;7.428;2023-07-13T09:00:13;2.53;;;1.30;;
13185;SDS011;6658;53.080;7.428;2023-07-13T09:05:40;2.30;;;1.47;;
13185;SDS011;6658;53.080;7.428;2023-07-13T09:11:19;7.83;;;2.00;;
13185;SDS011;6658;53.080;7.428;2023-07-13T09:14:30;3.47;;;1.57;;
13185;SDS011;6658;53.080;7.428;2023-07-13T09:17:46;3.70;;;1.70;;
13185;SDS011;6658;53.080;7.428;2023-07-13T09:20:23;3.47;;;2.37;;
13185;SDS011;6658;53.080;7.428;2023-07-13T09:22:58;3.10;;;1.93;;
13185;SDS011;6658;53.080;7.428;2023-07-13T09:25:30;3.67;;;1.73;;
13185;SDS011;6658;53.080;7.428;2023-07-13T09:27:59;2.90;;;1.97;;
13185;SDS011;6658;53.080;7.428;2023-07-13T09:33:31;3.17;;;1.93;;
13185;SDS011;6658;53.080;7.428;2023-07-13T09:35:57;2.43;;;2.00;;
13185;SDS011;6658;53.080;7.428;2023-07-13T09:38:24;5.17;;;2.33;;
13185;SDS011;6658;53.080;7.428;2023-07-13T09:41:14;5.90;;;2.87;;
13185;SDS011;6658;53.080;7.428;2023-07-13T09:44:02;7.60;;;2.60;;
13185;SDS011;6658;53.080;7.428;2023-07-13T09:46:45;1.63;;;1.43;;
13185;SDS011;6658;53.080;7.428;2023-07-13T09:49:24;2.37;;;1.50;;
13185;SDS011;6658;53.080;7.428;2023-07-13T09:51:57;4.40;;;2.03;;
13185;SDS011;6658;53.080;7.428;2023-07-13T09:54:35;3.00;;;1.70;;
13185;SDS011;6658;53.080;7.428;2023-07-13T09:57:03;3.00;;;1.70;;
13185;SDS011;6658;53.080;7.428;2023-07-13T09:59:46;2.27;;;1.40;;
13185;SDS011;6658;53.080;7.428;2023-07-13T10:02:37;1.53;;;1.07;;
13185;SDS011;6658;53.080;7.428;2023-07-13T10:05:06;1.77;;;1.37;;
13185;SDS011;6658;53.080;7.428;2023-07-13T10:07:41;1.43;;;1.13;;
13185;SDS011;6658;53.080;7.428;2023-07-13T10:10:15;2.47;;;1.30;;
13185;SDS011;6658;53.080;7.428;2023-07-13T10:12:43;1.90;;;1.20;;
13185;SDS011;6658;53.080;7.428;2023-07-13T10:18:11;2.63;;;1.30;;
13185;SDS011;6658;53.080;7.428;2023-07-13T10:20:36;1.77;;;1.40;;
13185;SDS011;6658;53.080;7.428;2023-07-13T10:23:07;2.40;;;1.57;;
13185;SDS011;6658;53.080;7.428;2023-07-13T10:25:41;1.40;;;1.20;;
13185;SDS011;6658;53.080;7.428;2023-07-13T10:28:13;1.63;;;1.20;;
13185;SDS011;6658;53.080;7.428;2023-07-13T10:30:54;1.87;;;1.30;;
13185;SDS011;6658;53.080;7.428;2023-07-13T10:33:23;2.50;;;1.30;;
13185;SDS011;6658;53.080;7.428;2023-07-13T10:35:50;1.50;;;1.40;;
13185;SDS011;6658;53.080;7.428;2023-07-13T10:38:23;2.07;;;1.20;;
13185;SDS011;6658;53.080;7.428;2023-07-13T10:40:56;2.63;;;1.70;;
13185;SDS011;6658;53.080;7.428;2023-07-13T10:43:36;1.23;;;1.07;;
13185;SDS011;6658;53.080;7.428;2023-07-13T10:46:07;1.83;;;1.10;;
13185;SDS011;6658;53.080;7.428;2023-07-13T10:48:40;1.90;;;1.03;;
13185;SDS011;6658;53.080;7.428;2023-07-13T10:51:10;1.73;;;0.93;;
13185;SDS011;6658;53.080;7.428;2023-07-13T10:53:38;1.70;;;1.20;;
13185;SDS011;6658;53.080;7.428;2023-07-13T10:59:25;1.50;;;1.00;;
13185;SDS011;6658;53.080;7.428;2023-07-13T11:02:06;1.33;;;1.20;;
13185;SDS011;6658;53.080;7.428;2023-07-13T11:04:48;2.27;;;1.07;;
13185;SDS011;6658;53.080;7.428;2023-07-13T11:09:54;1.57;;;1.47;;
13185;SDS011;6658;53.080;7.428;2023-07-13T11:17:36;1.97;;;1.17;;
13185;SDS011;6658;53.080;7.428;2023-07-13T11:20:32;1.57;;;1.20;;
13185;SDS011;6658;53.080;7.428;2023-07-13T11:25:51;0.70;;;0.70;;
13185;SDS011;6658;53.080;7.428;2023-07-13T11:28:18;0.80;;;0.80;;
13185;SDS011;6658;53.080;7.428;2023-07-13T11:31:01;0.80;;;0.80;;
13185;SDS011;6658;53.080;7.428;2023-07-13T11:41:47;1.00;;;0.90;;
13185;SDS011;6658;53.080;7.428;2023-07-13T11:44:17;1.33;;;1.20;;
13185;SDS011;6658;53.080;7.428;2023-07-13T11:46:49;1.20;;;1.10;;
13185;SDS011;6658;53.080;7.428;2023-07-13T11:49:20;1.80;;;1.00;;
13185;SDS011;6658;53.080;7.428;2023-07-13T11:51:52;2.43;;;1.17;;
13185;SDS011;6658;53.080;7.428;2023-07-13T11:54:26;1.70;;;1.10;;
13185;SDS011;6658;53.080;7.428;2023-07-13T11:57:01;0.93;;;0.87;;
13185;SDS011;6658;53.080;7.428;2023-07-13T11:59:31;1.40;;;1.30;;
13185;SDS011;6658;53.080;7.428;2023-07-13T12:02:21;1.83;;;1.00;;
13185;SDS011;6658;53.080;7.428;2023-07-13T12:04:55;1.57;;;1.00;;
13185;SDS011;6658;53.080;7.428;2023-07-13T12:07:22;1.10;;;1.00;;
13185;SDS011;6658;53.080;7.428;2023-07-13T12:09:48;0.90;;;0.80;;
13185;SDS011;6658;53.080;7.428;2023-07-13T12:12:18;1.17;;;1.07;;
13185;SDS011;6658;53.080;7.428;2023-07-13T12:14:50;1.00;;;1.00;;
13185;SDS011;6658;53.080;7.428;2023-07-13T12:17:20;1.03;;;0.90;;
13185;SDS011;6658;53.080;7.428;2023-07-13T12:19:49;2.27;;;1.03;;
13185;SDS011;6658;53.080;7.428;2023-07-13T12:22:17;2.37;;;0.80;;
13185;SDS011;6658;53.080;7.428;2023-07-13T12:24:48;1.73;;;1.20;;
13185;SDS011;6658;53.080;7.428;2023-07-13T12:27:27;1.23;;;0.80;;
13185;SDS011;6658;53.080;7.428;2023-07-13T12:30:00;1.70;;;1.20;;
13185;SDS011;6658;53.080;7.428;2023-07-13T12:32:28;0.80;;;0.80;;
13185;SDS011;6658;53.080;7.428;2023-07-13T12:34:57;1.80;;;1.30;;
13185;SDS011;6658;53.080;7.428;2023-07-13T12:37:37;1.07;;;0.90;;
13185;SDS011;6658;53.080;7.428;2023-07-13T12:40:12;2.03;;;1.13;;
13185;SDS011;6658;53.080;7.428;2023-07-13T12:42:45;1.97;;;1.00;;
13185;SDS011;6658;53.080;7.428;2023-07-13T12:47:47;1.93;;;1.20;;
13185;SDS011;6658;53.080;7.428;2023-07-13T12:50:45;1.73;;;1.17;;
13185;SDS011;6658;53.080;7.428;2023-07-13T12:53:14;3.43;;;1.13;;
13185;SDS011;6658;53.080;7.428;2023-07-13T12:55:49;1.30;;;0.90;;
13185;SDS011;6658;53.080;7.428;2023-07-13T12:58:25;1.90;;;1.07;;
13185;SDS011;6658;53.080;7.428;2023-07-13T13:00:56;1.50;;;1.00;;
13185;SDS011;6658;53.080;7.428;2023-07-13T13:08:37;1.37;;;1.20;;
13185;SDS011;6658;53.080;7.428;2023-07-13T13:11:06;3.10;;;1.03;;
13185;SDS011;6658;53.080;7.428;2023-07-13T13:13:34;2.37;;;1.20;;
13185;SDS011;6658;53.080;7.428;2023-07-13T13:18:56;1.70;;;1.20;;
13185;SDS011;6658;53.080;7.428;2023-07-13T13:21:24;3.00;;;1.30;;
13185;SDS011;6658;53.080;7.428;2023-07-13T13:23:53;2.00;;;1.23;;
13185;SDS011;6658;53.080;7.428;2023-07-13T13:26:20;3.60;;;1.43;;
13185;SDS011;6658;53.080;7.428;2023-07-13T13:28:51;2.23;;;1.27;;
13185;SDS011;6658;53.080;7.428;2023-07-13T13:31:19;1.77;;;1.30;;
13185;SDS011;6658;53.080;7.428;2023-07-13T13:33:54;2.10;;;1.20;;
13185;SDS011;6658;53.080;7.428;2023-07-13T13:36:22;3.83;;;1.60;;
13185;SDS011;6658;53.080;7.428;2023-07-13T13:38:51;1.63;;;1.20;;
13185;SDS011;6658;53.080;7.428;2023-07-13T13:41:17;2.03;;;1.20;;
13185;SDS011;6658;53.080;7.428;2023-07-13T13:43:43;3.07;;;1.57;;
13185;SDS011;6658;53.080;7.428;2023-07-13T13:46:17;4.23;;;1.70;;
13185;SDS011;6658;53.080;7.428;2023-07-13T13:48:46;2.87;;;1.60;;
13185;SDS011;6658;53.080;7.428;2023-07-13T13:51:18;2.37;;;1.30;;
13185;SDS011;6658;53.080;7.428;2023-07-13T13:53:46;4.37;;;1.60;;
13185;SDS011;6658;53.080;7.428;2023-07-13T13:56:13;1.40;;;1.23;;
13185;SDS011;6658;53.080;7.428;2023-07-13T13:58:39;1.63;;;1.53;;
13185;SDS011;6658;53.080;7.428;2023-07-13T14:01:11;1.40;;;1.30;;
13185;SDS011;6658;53.080;7.428;2023-07-13T14:04:00;1.70;;;1.40;;
13185;SDS011;6658;53.080;7.428;2023-07-13T14:06:26;2.00;;;1.40;;
13185;SDS011;6658;53.080;7.428;2023-07-13T14:08:54;3.20;;;1.43;;
13185;SDS011;6658;53.080;7.428;2023-07-13T14:11:21;2.30;;;1.33;;
13185;SDS011;6658;53.080;7.428;2023-07-13T14:13:50;2.63;;;1.43;;
13185;SDS011;6658;53.080;7.428;2023-07-13T14:16:25;2.27;;;1.23;;
13185;SDS011;6658;53.080;7.428;2023-07-13T14:18:56;1.80;;;1.03;;
13185;SDS011;6658;53.080;7.428;2023-07-13T14:21:26;2.00;;;1.17;;
13185;SDS011;6658;53.080;7.428;2023-07-13T14:24:22;1.27;;;0.93;;
13185;SDS011;6658;53.080;7.428;2023-07-13T14:26:48;4.20;;;1.30;;
13185;SDS011;6658;53.080;7.428;2023-07-13T14:29:15;4.23;;;1.20;;
13185;SDS011;6658;53.080;7.428;2023-07-13T14:31:47;1.30;;;1.00;;
13185;SDS011;6658;53.080;7.428;2023-07-13T14:34:21;1.87;;;1.00;;
13185;SDS011;6658;53.080;7.428;2023-07-13T14:36:48;2.33;;;1.07;;
13185;SDS011;6658;53.080;7.428;2023-07-13T14:39:16;1.30;;;1.00;;
13185;SDS011;6658;53.080;7.428;2023-07-13T14:41:49;2.20;;;1.10;;
13185;SDS011;6658;53.080;7.428;2023-07-13T14:44:30;4.27;;;1.33;;
13185;SDS011;6658;53.080;7.428;2023-07-13T14:47:16;1.07;;;0.80;;
13185;SDS011;6658;53.080;7.428;2023-07-13T14:49:43;2.63;;;0.90;;
13185;SDS011;6658;53.080;7.428;2023-07-13T14:52:16;3.00;;;0.80;;
13185;SDS011;6658;53.080;7.428;2023-07-13T14:54:46;1.30;;;1.20;;
13185;SDS011;6658;53.080;7.428;2023-07-13T14:57:13;1.83;;;0.87;;
13185;SDS011;6658;53.080;7.428;2023-07-13T14:59:44;1.67;;;0.70;;
13185;SDS011;6658;53.080;7.428;2023-07-13T15:02:18;2.40;;;1.03;;
13185;SDS011;6658;53.080;7.428;2023-07-13T15:05:00;1.43;;;0.90;;
13185;SDS011;6658;53.080;7.428;2023-07-13T15:07:32;1.17;;;0.90;;
13185;SDS011;6658;53.080;7.428;2023-07-13T15:10:20;1.87;;;0.70;;
13185;SDS011;6658;53.080;7.428;2023-07-13T15:13:12;1.97;;;0.90;;
13185;SDS011;6658;53.080;7.428;2023-07-13T15:15:50;2.00;;;0.97;;
13185;SDS011;6658;53.080;7.428;2023-07-13T15:18:18;2.27;;;0.90;;
13185;SDS011;6658;53.080;7.428;2023-07-13T15:20:46;2.80;;;1.00;;
13185;SDS011;6658;53.080;7.428;2023-07-13T15:23:13;3.83;;;0.90;;
13185;SDS011;6658;53.080;7.428;2023-07-13T15:25:47;1.13;;;0.97;;
13185;SDS011;6658;53.080;7.428;2023-07-13T15:28:19;2.67;;;1.10;;
13185;SDS011;6658;53.080;7.428;2023-07-13T15:34:11;2.33;;;1.27;;
13185;SDS011;6658;53.080;7.428;2023-07-13T15:36:52;2.23;;;1.10;;
13185;SDS011;6658;53.080;7.428;2023-07-13T15:39:18;1.73;;;1.00;;
13185;SDS011;6658;53.080;7.428;2023-07-13T15:41:44;3.03;;;1.10;;
13185;SDS011;6658;53.080;7.428;2023-07-13T15:44:22;2.33;;;0.93;;
13185;SDS011;6658;53.080;7.428;2023-07-13T15:46:50;3.13;;;1.07;;
13185;SDS011;6658;53.080;7.428;2023-07-13T15:49:25;2.53;;;1.40;;
13185;SDS011;6658;53.080;7.428;2023-07-13T15:51:51;2.17;;;1.10;;
13185;SDS011;6658;53.080;7.428;2023-07-13T15:54:25;1.67;;;1.10;;
13185;SDS011;6658;53.080;7.428;2023-07-13T15:56:53;2.40;;;1.10;;
13185;SDS011;6658;53.080;7.428;2023-07-13T15:59:28;1.40;;;0.93;;
13185;SDS011;6658;53.080;7.428;2023-07-13T16:01:53;1.77;;;0.97;;
13185;SDS011;6658;53.080;7.428;2023-07-13T16:04:22;3.13;;;1.23;;
13185;SDS011;6658;53.080;7.428;2023-07-13T16:06:48;2.73;;;1.03;;
13185;SDS011;6658;53.080;7.428;2023-07-13T16:09:36;1.97;;;1.10;;
13185;SDS011;6658;53.080;7.428;2023-07-13T16:12:09;2.23;;;1.00;;
13185;SDS011;6658;53.080;7.428;2023-07-13T16:14:40;2.17;;;0.90;;
13185;SDS011;6658;53.080;7.428;2023-07-13T16:17:12;1.60;;;1.00;;
13185;SDS011;6658;53.080;7.428;2023-07-13T16:19:40;2.50;;;1.10;;
13185;SDS011;6658;53.080;7.428;2023-07-13T16:22:17;2.60;;;1.13;;
13185;SDS011;6658;53.080;7.428;2023-07-13T16:24:50;2.10;;;1.10;;
13185;SDS011;6658;53.080;7.428;2023-07-13T16:27:20;1.20;;;1.10;;
13185;SDS011;6658;53.080;7.428;2023-07-13T16:29:49;2.17;;;1.10;;
13185;SDS011;6658;53.080;7.428;2023-07-13T16:32:15;3.23;;;1.27;;
13185;SDS011;6658;53.080;7.428;2023-07-13T16:34:49;1.80;;;0.93;;
13185;SDS011;6658;53.080;7.428;2023-07-13T16:37:18;2.27;;;1.13;;
13185;SDS011;6658;53.080;7.428;2023-07-13T16:39:54;2.63;;;1.10;;
13185;SDS011;6658;53.080;7.428;2023-07-13T16:42:25;1.53;;;0.90;;
13185;SDS011;6658;53.080;7.428;2023-07-13T16:44:55;2.40;;;1.30;;
13185;SDS011;6658;53.080;7.428;2023-07-13T16:47:24;2.80;;;1.27;;
13185;SDS011;6658;53.080;7.428;2023-07-13T16:49:59;1.23;;;0.90;;
13185;SDS011;6658;53.080;7.428;2023-07-13T16:52:35;3.93;;;1.40;;
13185;SDS011;6658;53.080;7.428;2023-07-13T16:57:52;1.33;;;1.00;;
13185;SDS011;6658;53.080;7.428;2023-07-13T17:00:20;2.27;;;1.00;;
13185;SDS011;6658;53.080;7.428;2023-07-13T17:03:02;1.90;;;1.20;;
13185;SDS011;6658;53.080;7.428;2023-07-13T17:05:32;1.97;;;1.37;;
13185;SDS011;6658;53.080;7.428;2023-07-13T17:10:52;5.97;;;1.73;;
13185;SDS011;6658;53.080;7.428;2023-07-13T17:13:22;2.47;;;1.13;;
13185;SDS011;6658;53.080;7.428;2023-07-13T17:15:50;2.83;;;0.90;;
13185;SDS011;6658;53.080;7.428;2023-07-13T17:18:27;2.43;;;1.10;;
13185;SDS011;6658;53.080;7.428;2023-07-13T17:21:00;1.33;;;0.93;;
13185;SDS011;6658;53.080;7.428;2023-07-13T17:23:29;1.87;;;1.17;;
13185;SDS011;6658;53.080;7.428;2023-07-13T17:25:58;1.60;;;1.03;;
13185;SDS011;6658;53.080;7.428;2023-07-13T17:28:24;2.00;;;1.20;;
13185;SDS011;6658;53.080;7.428;2023-07-13T17:31:27;2.57;;;1.07;;
13185;SDS011;6658;53.080;7.428;2023-07-13T17:34:09;2.53;;;1.43;;
13185;SDS011;6658;53.080;7.428;2023-07-13T17:36:49;2.73;;;1.10;;
13185;SDS011;6658;53.080;7.428;2023-07-13T17:45:26;1.87;;;0.90;;
13185;SDS011;6658;53.080;7.428;2023-07-13T17:47:55;1.33;;;1.00;;
13185;SDS011;6658;53.080;7.428;2023-07-13T17:50:33;2.17;;;1.13;;
13185;SDS011;6658;53.080;7.428;2023-07-13T17:53:19;2.63;;;1.10;;
13185;SDS011;6658;53.080;7.428;2023-07-13T17:56:04;2.40;;;1.10;;
13185;SDS011;6658;53.080;7.428;2023-07-13T17:58:51;1.67;;;1.17;;
13185;SDS011;6658;53.080;7.428;2023-07-13T18:04:32;3.23;;;1.43;;
13185;SDS011;6658;53.080;7.428;2023-07-13T18:07:17;2.87;;;1.37;;
13185;SDS011;6658;53.080;7.428;2023-07-13T18:09:50;1.63;;;1.20;;
13185;SDS011;6658;53.080;7.428;2023-07-13T18:12:16;1.30;;;1.10;;
13185;SDS011;6658;53.080;7.428;2023-07-13T18:14:44;1.60;;;1.03;;
13185;SDS011;6658;53.080;7.428;2023-07-13T18:17:11;2.17;;;1.20;;
13185;SDS011;6658;53.080;7.428;2023-07-13T18:19:51;2.63;;;1.10;;
13185;SDS011;6658;53.080;7.428;2023-07-13T18:22:26;1.60;;;1.10;;
13185;SDS011;6658;53.080;7.428;2023-07-13T18:24:52;1.67;;;0.90;;
13185;SDS011;6658;53.080;7.428;2023-07-13T18:27:23;2.67;;;1.33;;
13185;SDS011;6658;53.080;7.428;2023-07-13T18:29:49;2.00;;;1.13;;
13185;SDS011;6658;53.080;7.428;2023-07-13T18:32:15;2.00;;;1.43;;
13185;SDS011;6658;53.080;7.428;2023-07-13T18:34:47;3.73;;;1.30;;
13185;SDS011;6658;53.080;7.428;2023-07-13T18:37:19;2.87;;;1.47;;
13185;SDS011;6658;53.080;7.428;2023-07-13T18:39:51;3.47;;;1.50;;
13185;SDS011;6658;53.080;7.428;2023-07-13T18:42:20;2.17;;;1.67;;
13185;SDS011;6658;53.080;7.428;2023-07-13T18:45:26;2.67;;;1.43;;
13185;SDS011;6658;53.080;7.428;2023-07-13T18:47:56;1.60;;;1.23;;
13185;SDS011;6658;53.080;7.428;2023-07-13T18:53:50;4.60;;;1.23;;
13185;SDS011;6658;53.080;7.428;2023-07-13T18:57:11;2.30;;;1.30;;
13185;SDS011;6658;53.080;7.428;2023-07-13T19:00:26;2.57;;;1.40;;
13185;SDS011;6658;53.080;7.428;2023-07-13T19:09:46;2.97;;;1.30;;
13185;SDS011;6658;53.080;7.428;2023-07-13T19:23:03;4.00;;;1.67;;
13185;SDS011;6658;53.080;7.428;2023-07-13T20:15:59;4.20;;;2.00;;
13185;SDS011;6658;53.080;7.428;2023-07-13T20:28:50;4.30;;;1.90;;
13185;SDS011;6658;53.080;7.428;2023-07-13T20:39:51;4.33;;;1.63;;
13185;SDS011;6658;53.080;7.428;2023-07-13T21:00:39;2.00;;;1.60;;
13185;SDS011;6658;53.080;7.428;2023-07-13T21:28:29;4.17;;;2.23;;
13185;SDS011;6658;53.080;7.428;2023-07-13T21:31:43;2.67;;;1.80;;
13185;SDS011;6658;53.080;7.428;2023-07-13T21:42:09;2.23;;;1.83;;
13185;SDS011;6658;53.080;7.428;2023-07-13T21:59:18;2.90;;;1.63;;
13185;SDS011;6658;53.080;7.428;2023-07-13T22:58:01;2.77;;;1.93;;
13185;SDS011;6658;53.080;7.428;2023-07-13T23:01:29;2.33;;;2.13;;
13185;SDS011;6658;53.080;7.428;2023-07-13T23:04:45;3.93;;;2.30;;
13185;SDS011;6658;53.080;7.428;2023-07-13T23:17:13;4.07;;;2.40;;
13185;SDS011;6658;53.080;7.428;2023-07-13T23:35:22;5.20;;;3.60;;
13185;SDS011;6658;53.080;7.428;2023-07-13T23:38:23;4.37;;;4.00;;
13185;SDS011;6658;53.080;7.428;2023-07-13T23:41:20;4.60;;;4.20;;
13185;SDS011;6658;53.080;7.428;2023-07-13T23:51:16;5.43;;;3.40;;
13185;SDS011;6658;53.080;7.428;2023-07-13T23:54:39;4.83;;;3.53;;
13185;SDS011;6658;53.080;7.428;2023-07-13T23:57:56;4.43;;;3.40;;
